createdAt,value
2017-08-08T00:02:19.983Z,23.86
2017-08-08T00:04:52.539Z,23.80
2017-08-08T00:07:27.225Z,23.83
2017-08-08T00:10:02.762Z,23.80
2017-08-08T00:12:35.414Z,23.80
2017-08-08T00:15:08.338Z,23.66
2017-08-08T00:17:41.283Z,23.79
2017-08-08T00:20:13.972Z,23.78
2017-08-08T00:22:48.280Z,23.63
2017-08-08T00:25:20.367Z,23.72
2017-08-08T00:27:53.113Z,23.62
2017-08-08T00:30:28.232Z,23.51
2017-08-08T00:33:01.653Z,23.51
2017-08-08T00:35:34.055Z,23.68
2017-08-08T00:38:06.926Z,23.68
2017-08-08T00:40:39.273Z,23.61
2017-08-08T00:43:12.999Z,23.48
2017-08-08T00:45:45.651Z,23.64
2017-08-08T00:48:18.525Z,23.64
2017-08-08T00:50:51.106Z,23.64
2017-08-08T00:53:24.257Z,23.60
2017-08-08T00:55:59.771Z,23.59
2017-08-08T00:58:32.037Z,23.60
2017-08-08T01:01:05.262Z,23.58
2017-08-08T01:03:37.823Z,23.56
2017-08-08T01:06:10.765Z,23.57
2017-08-08T01:08:44.541Z,23.55
2017-08-08T01:11:17.250Z,23.53
2017-08-08T01:13:49.693Z,23.53
2017-08-08T01:16:22.003Z,23.52
2017-08-08T01:18:57.122Z,23.53
2017-08-08T01:21:29.921Z,23.52
2017-08-08T01:24:02.288Z,23.50
2017-08-08T01:26:35.028Z,23.47
2017-08-08T01:29:07.920Z,23.43
2017-08-08T01:31:41.356Z,23.42
2017-08-08T01:34:13.518Z,23.40
2017-08-08T01:36:49.561Z,23.38
2017-08-08T01:39:21.623Z,23.37
2017-08-08T01:41:59.387Z,23.35
2017-08-08T01:44:32.975Z,23.33
2017-08-08T01:47:06.402Z,23.35
2017-08-08T01:49:39.032Z,23.27
2017-08-08T01:52:13.409Z,23.22
2017-08-08T01:54:47.216Z,23.04
2017-08-08T01:57:19.331Z,23.19
2017-08-08T01:59:55.690Z,23.13
2017-08-08T02:02:33.009Z,23.14
2017-08-08T02:05:05.721Z,23.19
2017-08-08T02:07:38.833Z,23.08
2017-08-08T02:10:13.921Z,23.08
2017-08-08T02:12:46.053Z,23.19
2017-08-08T02:15:19.780Z,23.07
2017-08-08T02:17:52.388Z,23.17
2017-08-08T02:20:28.564Z,23.12
2017-08-08T02:23:04.702Z,22.81
2017-08-08T02:25:38.318Z,23.19
2017-08-08T02:28:11.536Z,22.99
2017-08-08T02:30:44.916Z,23.01
2017-08-08T02:33:18.803Z,23.17
2017-08-08T02:35:56.536Z,23.11
2017-08-08T02:38:33.797Z,23.10
2017-08-08T02:41:06.222Z,23.11
2017-08-08T02:43:39.752Z,23.10
2017-08-08T02:46:17.327Z,23.11
2017-08-08T02:48:50.874Z,22.86
2017-08-08T02:51:23.520Z,23.07
2017-08-08T02:53:59.163Z,22.98
2017-08-08T02:56:31.817Z,22.87
2017-08-08T02:59:04.727Z,22.97
2017-08-08T03:01:37.448Z,22.96
2017-08-08T03:04:11.940Z,22.79
2017-08-08T03:06:44.996Z,22.87
2017-08-08T03:09:18.189Z,22.88
2017-08-08T03:11:52.415Z,22.83
2017-08-08T03:14:32.837Z,22.94
2017-08-08T03:17:11.723Z,22.97
2017-08-08T03:19:48.254Z,22.91
2017-08-08T03:22:20.810Z,22.88
2017-08-08T03:24:57.391Z,22.87
2017-08-08T03:27:33.137Z,22.64
2017-08-08T03:30:10.778Z,22.89
2017-08-08T03:32:42.732Z,22.90
2017-08-08T03:35:14.961Z,22.89
2017-08-08T03:37:48.065Z,22.86
2017-08-08T03:40:20.480Z,22.80
2017-08-08T03:45:32.169Z,22.67
2017-08-08T03:48:07.184Z,22.75
2017-08-08T03:50:40.421Z,22.71
2017-08-08T03:53:14.668Z,22.68
2017-08-08T03:55:48.972Z,22.58
2017-08-08T03:58:22.408Z,22.72
2017-08-08T04:01:00.133Z,22.55
2017-08-08T04:03:36.577Z,22.56
2017-08-08T04:06:14.119Z,22.55
2017-08-08T04:08:46.855Z,22.61
2017-08-08T04:11:23.593Z,22.50
2017-08-08T04:14:01.626Z,22.65
2017-08-08T04:16:35.027Z,22.50
2017-08-08T04:19:07.867Z,22.62
2017-08-08T04:21:40.490Z,22.61
2017-08-08T04:24:13.059Z,22.51
2017-08-08T04:26:46.265Z,22.59
2017-08-08T04:29:20.555Z,22.60
2017-08-08T04:31:59.956Z,22.64
2017-08-08T04:34:32.896Z,22.56
2017-08-08T04:37:06.530Z,22.62
2017-08-08T04:39:38.825Z,22.62
2017-08-08T04:42:11.184Z,22.54
2017-08-08T04:44:43.533Z,22.55
2017-08-08T04:47:15.779Z,22.57
2017-08-08T04:49:49.192Z,22.61
2017-08-08T04:52:21.398Z,22.68
2017-08-08T04:54:56.119Z,22.72
2017-08-08T04:57:28.443Z,22.79
2017-08-08T05:00:02.551Z,22.64
2017-08-08T05:02:36.322Z,22.77
2017-08-08T05:05:10.159Z,23.24
2017-08-08T05:07:43.408Z,23.42
2017-08-08T05:10:15.498Z,23.45
2017-08-08T05:12:48.451Z,23.17
2017-08-08T05:15:21.166Z,23.00
2017-08-08T05:17:56.481Z,22.88
2017-08-08T05:20:29.610Z,22.88
2017-08-08T05:23:04.449Z,22.72
2017-08-08T05:25:37.983Z,22.87
2017-08-08T05:28:11.148Z,22.85
2017-08-08T05:30:48.015Z,22.85
2017-08-08T05:33:24.652Z,22.84
2017-08-08T05:36:04.226Z,22.84
2017-08-08T05:38:41.639Z,22.83
2017-08-08T05:41:19.910Z,22.63
2017-08-08T05:43:53.171Z,22.79
2017-08-08T05:46:32.370Z,22.75
2017-08-08T05:49:10.054Z,22.75
2017-08-08T05:51:49.224Z,22.48
2017-08-08T05:54:28.047Z,22.76
2017-08-08T05:57:06.277Z,22.61
2017-08-08T05:59:40.217Z,22.83
2017-08-08T06:02:18.669Z,22.78
2017-08-08T06:04:59.102Z,22.78
2017-08-08T06:07:42.679Z,22.85
2017-08-08T06:10:22.089Z,22.86
2017-08-08T06:13:03.974Z,22.87
2017-08-08T06:15:42.053Z,22.91
2017-08-08T06:18:19.129Z,22.93
2017-08-08T06:20:59.286Z,22.90
2017-08-08T06:23:32.776Z,23.01
2017-08-08T06:26:13.276Z,22.75
2017-08-08T06:28:52.252Z,23.08
2017-08-08T06:31:33.575Z,23.05
2017-08-08T06:34:06.278Z,23.15
2017-08-08T06:36:45.531Z,23.17
2017-08-08T06:39:20.538Z,23.19
2017-08-08T06:42:12.160Z,23.25
2017-08-08T06:44:50.368Z,23.33
2017-08-08T06:47:24.461Z,23.39
2017-08-08T06:50:02.198Z,23.42
2017-08-08T06:52:38.810Z,23.44
2017-08-08T06:55:15.347Z,23.48
2017-08-08T07:00:34.545Z,23.58
2017-08-08T07:03:09.360Z,23.47
2017-08-08T07:05:50.273Z,23.59
2017-08-08T07:08:25.085Z,23.62
2017-08-08T07:11:04.642Z,23.02
2017-08-08T07:13:39.885Z,23.62
2017-08-08T07:16:13.820Z,23.70
2017-08-08T07:18:50.370Z,22.88
2017-08-08T07:21:26.098Z,23.66
2017-08-08T07:24:04.858Z,23.66
2017-08-08T07:26:41.916Z,23.58
2017-08-08T07:29:22.244Z,23.52
2017-08-08T07:32:06.657Z,23.43
2017-08-08T07:34:48.091Z,23.81
2017-08-08T07:37:21.481Z,23.84
2017-08-08T07:40:08.923Z,23.89
2017-08-08T07:42:42.966Z,23.77
2017-08-08T07:45:16.904Z,23.91
2017-08-08T07:47:49.791Z,23.68
2017-08-08T07:50:26.371Z,23.86
2017-08-08T07:53:06.445Z,23.88
2017-08-08T07:55:41.335Z,23.71
2017-08-08T08:00:55.804Z,23.70
2017-08-08T08:03:31.776Z,23.74
2017-08-08T08:06:05.955Z,24.02
2017-08-08T08:08:44.249Z,24.01
2017-08-08T08:11:17.510Z,24.07
2017-08-08T08:13:56.055Z,23.88
2017-08-08T08:16:29.984Z,24.09
2017-08-08T08:19:03.546Z,24.09
2017-08-08T08:21:40.146Z,24.30
2017-08-08T08:24:15.892Z,24.32
2017-08-08T08:26:49.453Z,24.27
2017-08-08T08:29:27.700Z,24.27
2017-08-08T08:32:04.087Z,24.48
2017-08-08T08:34:36.819Z,24.61
2017-08-08T08:37:10.915Z,24.72
2017-08-08T08:39:44.045Z,24.77
2017-08-08T08:42:17.216Z,24.90
2017-08-08T08:44:50.658Z,25.02
2017-08-08T08:47:23.989Z,25.17
2017-08-08T08:50:05.404Z,25.12
2017-08-08T08:52:42.004Z,24.93
2017-08-08T08:55:18.244Z,24.83
2017-08-08T08:57:50.959Z,24.78
2017-08-08T09:00:24.215Z,24.77
2017-08-08T09:03:02.519Z,24.87
2017-08-08T09:05:37.350Z,24.78
2017-08-08T09:08:13.409Z,24.79
2017-08-08T09:10:47.338Z,24.84
2017-08-08T09:13:20.582Z,24.83
2017-08-08T09:18:31.612Z,24.68
2017-08-08T09:21:04.590Z,24.66
2017-08-08T09:23:37.351Z,24.62
2017-08-08T09:26:10.147Z,24.61
2017-08-08T09:28:43.496Z,24.72
2017-08-08T09:31:18.010Z,24.80
2017-08-08T09:33:52.182Z,24.77
2017-08-08T09:36:27.748Z,24.83
2017-08-08T09:39:04.963Z,24.85
2017-08-08T09:41:38.565Z,24.68
2017-08-08T09:44:11.570Z,24.92
2017-08-08T09:46:45.320Z,24.90
2017-08-08T09:49:18.545Z,24.96
2017-08-08T09:51:51.197Z,25.00
2017-08-08T09:54:25.750Z,25.11
2017-08-08T09:57:01.023Z,25.15
2017-08-08T10:00:07.522Z,24.79
2017-08-08T10:02:41.892Z,25.19
2017-08-08T10:05:19.892Z,25.18
2017-08-08T10:07:57.860Z,25.34
2017-08-08T10:10:30.896Z,25.39
2017-08-08T10:13:05.604Z,25.43
2017-08-08T10:15:38.779Z,25.47
2017-08-08T10:18:14.848Z,25.51
2017-08-08T10:20:49.120Z,25.55
2017-08-08T10:23:22.428Z,25.56
2017-08-08T10:26:03.174Z,25.60
2017-08-08T10:28:37.771Z,25.60
2017-08-08T10:31:13.387Z,25.63
2017-08-08T10:33:47.181Z,25.66
2017-08-08T10:36:27.332Z,25.63
2017-08-08T10:39:12.327Z,25.32
2017-08-08T10:41:50.205Z,25.66
2017-08-08T10:44:22.922Z,25.74
2017-08-08T10:47:00.199Z,25.69
2017-08-08T10:49:34.403Z,25.75
2017-08-08T10:52:10.360Z,25.83
2017-08-08T10:54:49.339Z,25.81
2017-08-08T10:57:22.247Z,25.97
2017-08-08T11:00:01.839Z,25.97
2017-08-08T11:02:35.343Z,26.01
2017-08-08T11:05:10.722Z,25.88
2017-08-08T11:07:44.000Z,26.02
2017-08-08T11:10:17.756Z,26.06
2017-08-08T11:12:51.348Z,26.08
2017-08-08T11:15:26.820Z,26.07
2017-08-08T11:17:59.850Z,26.03
2017-08-08T11:20:37.705Z,26.13
2017-08-08T11:23:12.521Z,26.21
2017-08-08T11:25:46.513Z,26.08
2017-08-08T11:28:22.409Z,26.16
2017-08-08T11:31:01.091Z,26.27
2017-08-08T11:33:36.390Z,26.34
2017-08-08T11:36:11.139Z,26.38
2017-08-08T11:38:43.953Z,26.41
2017-08-08T11:41:17.576Z,26.42
2017-08-08T11:43:49.993Z,26.44
2017-08-08T11:46:24.537Z,26.46
2017-08-08T11:49:03.429Z,26.50
2017-08-08T11:51:37.119Z,26.50
2017-08-08T11:54:14.054Z,26.43
2017-08-08T11:56:47.455Z,26.51
2017-08-08T11:59:32.482Z,26.51
2017-08-08T12:02:08.293Z,26.52
2017-08-08T12:04:41.425Z,26.57
2017-08-08T12:07:15.716Z,26.56
2017-08-08T12:09:48.016Z,26.60
2017-08-08T12:12:20.781Z,26.57
2017-08-08T12:14:54.299Z,26.71
2017-08-08T12:17:26.820Z,26.76
2017-08-08T12:20:04.477Z,26.87
2017-08-08T12:22:37.595Z,26.82
2017-08-08T12:25:10.795Z,26.82
2017-08-08T12:27:43.965Z,26.83
2017-08-08T12:30:17.422Z,26.89
2017-08-08T12:32:51.942Z,26.97
2017-08-08T12:35:25.091Z,26.97
2017-08-08T12:38:00.303Z,26.97
2017-08-08T12:40:32.952Z,26.97
2017-08-08T12:43:06.113Z,26.89
2017-08-08T12:45:39.863Z,27.06
2017-08-08T12:48:12.866Z,27.05
2017-08-08T12:50:49.888Z,27.04
2017-08-08T12:53:22.652Z,27.05
2017-08-08T12:55:56.961Z,27.00
2017-08-08T12:58:49.946Z,26.67
2017-08-08T13:01:23.899Z,27.13
2017-08-08T13:03:56.886Z,27.14
2017-08-08T13:06:31.799Z,27.17
2017-08-08T13:09:07.924Z,27.25
2017-08-08T13:11:43.421Z,27.24
2017-08-08T13:17:44.019Z,27.16
2017-08-08T13:20:48.386Z,27.10
2017-08-08T13:23:22.858Z,27.32
2017-08-08T13:26:33.264Z,27.34
2017-08-08T13:29:18.890Z,27.31
2017-08-08T13:31:57.036Z,27.27
2017-08-08T13:34:29.185Z,27.20
2017-08-08T13:37:03.893Z,27.03
2017-08-08T13:39:36.370Z,27.14
2017-08-08T13:42:08.548Z,26.86
2017-08-08T13:45:06.464Z,27.09
2017-08-08T13:47:38.397Z,27.06
2017-08-08T13:50:14.327Z,27.04
2017-08-08T13:52:48.542Z,27.00
2017-08-08T13:55:21.146Z,26.93
2017-08-08T13:58:39.174Z,26.70
2017-08-08T14:01:19.948Z,26.95
2017-08-08T14:04:16.550Z,26.92
2017-08-08T14:06:48.788Z,26.88
2017-08-08T14:09:23.097Z,26.89
2017-08-08T14:11:54.986Z,26.75
2017-08-08T14:14:29.062Z,26.69
2017-08-08T14:17:21.242Z,26.50
2017-08-08T14:19:57.534Z,26.86
2017-08-08T14:22:30.996Z,26.88
2017-08-08T14:25:04.411Z,26.80
2017-08-08T14:27:37.164Z,26.93
2017-08-08T14:30:10.781Z,26.94
2017-08-08T14:32:47.607Z,26.77
2017-08-08T14:35:19.636Z,26.94
2017-08-08T14:37:51.464Z,26.96
2017-08-08T14:40:23.454Z,26.96
2017-08-08T14:42:57.992Z,26.96
2017-08-08T14:45:30.742Z,26.94
2017-08-08T14:48:03.252Z,26.75
2017-08-08T14:50:46.571Z,26.97
2017-08-08T14:53:18.439Z,26.98
2017-08-08T14:55:51.681Z,27.02
2017-08-08T14:58:24.092Z,27.05
2017-08-08T15:01:05.889Z,27.03
2017-08-08T15:03:38.130Z,27.01
2017-08-08T15:06:10.609Z,27.00
2017-08-08T15:08:42.465Z,26.89
2017-08-08T15:11:14.911Z,26.82
2017-08-08T15:13:47.327Z,26.92
2017-08-08T15:16:26.219Z,26.96
2017-08-08T15:19:03.201Z,26.81
2017-08-08T15:21:35.239Z,26.95
2017-08-08T15:24:08.809Z,26.95
2017-08-08T15:26:40.866Z,27.02
2017-08-08T15:29:12.847Z,27.00
2017-08-08T15:31:45.426Z,26.93
2017-08-08T15:34:19.776Z,26.88
2017-08-08T15:36:52.978Z,27.01
2017-08-08T15:39:30.641Z,27.01
2017-08-08T15:42:10.667Z,27.05
2017-08-08T15:44:43.690Z,27.02
2017-08-08T15:47:22.030Z,27.03
2017-08-08T15:49:58.343Z,27.05
2017-08-08T15:52:32.173Z,27.04
2017-08-08T15:55:04.825Z,26.79
2017-08-08T15:57:37.896Z,27.00
2017-08-08T16:00:14.896Z,27.00
2017-08-08T16:02:47.264Z,26.96
2017-08-08T16:05:20.502Z,26.98
2017-08-08T16:07:52.071Z,26.96
2017-08-08T16:10:24.584Z,26.96
2017-08-08T16:12:58.822Z,26.91
2017-08-08T16:16:42.250Z,26.88
2017-08-08T16:19:18.091Z,26.80
2017-08-08T16:24:34.536Z,26.77
2017-08-08T16:27:07.038Z,26.76
2017-08-08T16:29:39.693Z,26.73
2017-08-08T16:32:12.074Z,26.64
2017-08-08T16:34:44.749Z,26.66
2017-08-08T16:37:19.236Z,26.63
2017-08-08T16:39:53.177Z,26.61
2017-08-08T16:42:25.933Z,26.61
2017-08-08T16:45:03.053Z,26.60
2017-08-08T16:47:35.261Z,26.58
2017-08-08T16:50:10.115Z,26.50
2017-08-08T16:52:46.378Z,26.54
2017-08-08T16:55:18.832Z,26.39
2017-08-08T16:57:50.393Z,26.48
2017-08-08T17:00:24.012Z,26.40
2017-08-08T17:02:58.837Z,26.46
2017-08-08T17:05:30.752Z,26.46
2017-08-08T17:08:03.413Z,26.16
2017-08-08T17:10:36.248Z,26.43
2017-08-08T17:13:08.423Z,26.41
2017-08-08T17:15:50.490Z,26.33
2017-08-08T17:18:22.316Z,26.36
2017-08-08T17:20:57.467Z,26.30
2017-08-08T17:23:30.651Z,26.28
2017-08-08T17:26:03.392Z,26.32
2017-08-08T17:28:36.049Z,26.32
2017-08-08T17:31:08.071Z,26.30
2017-08-08T17:33:42.381Z,26.28
2017-08-08T17:36:16.192Z,26.09
2017-08-08T17:38:48.711Z,26.27
2017-08-08T17:41:29.547Z,26.23
2017-08-08T17:44:09.017Z,26.06
2017-08-08T17:46:42.451Z,26.21
2017-08-08T17:49:16.839Z,26.21
2017-08-08T17:51:48.943Z,26.17
2017-08-08T17:54:21.240Z,26.15
2017-08-08T17:56:57.567Z,26.14
2017-08-08T17:59:35.947Z,26.14
2017-08-08T18:02:10.313Z,26.10
2017-08-08T18:04:50.743Z,26.09
2017-08-08T18:07:24.386Z,26.10
2017-08-08T18:09:59.624Z,26.03
2017-08-08T18:12:49.572Z,26.07
2017-08-08T18:15:31.439Z,25.99
2017-08-08T18:18:03.361Z,26.05
2017-08-08T18:20:36.403Z,26.05
2017-08-08T18:23:10.283Z,26.03
2017-08-08T18:25:46.582Z,26.02
2017-08-08T18:28:21.934Z,25.98
2017-08-08T18:30:54.727Z,25.97
2017-08-08T18:33:26.722Z,25.96
2017-08-08T18:36:00.889Z,25.89
2017-08-08T18:38:34.741Z,25.83
2017-08-08T18:41:06.676Z,25.88
2017-08-08T18:43:39.446Z,25.92
2017-08-08T18:46:11.951Z,25.90
2017-08-08T18:48:44.034Z,25.89
2017-08-08T18:51:18.276Z,25.77
2017-08-08T18:53:52.688Z,25.87
2017-08-08T18:56:28.836Z,25.87
2017-08-08T18:59:05.708Z,25.34
2017-08-08T19:01:38.729Z,25.82
2017-08-08T19:04:16.126Z,25.81
2017-08-08T19:06:48.078Z,25.81
2017-08-08T19:09:21.130Z,25.68
2017-08-08T19:11:55.869Z,25.73
2017-08-08T19:14:34.167Z,25.73
2017-08-08T19:17:09.527Z,25.78
2017-08-08T19:19:44.807Z,25.59
2017-08-08T19:22:16.645Z,25.75
2017-08-08T19:24:57.016Z,25.68
2017-08-08T19:27:29.650Z,25.63
2017-08-08T19:30:05.513Z,25.51
2017-08-08T19:32:40.511Z,25.61
2017-08-08T19:35:16.901Z,25.67
2017-08-08T19:37:50.950Z,25.65
2017-08-08T19:40:25.523Z,25.64
2017-08-08T19:43:01.170Z,25.70
2017-08-08T19:45:35.968Z,25.68
2017-08-08T19:48:08.101Z,25.68
2017-08-08T19:50:42.017Z,25.67
2017-08-08T19:53:17.080Z,25.66
2017-08-08T19:55:56.029Z,25.60
2017-08-08T19:58:51.393Z,25.60
2017-08-08T20:01:24.650Z,25.59
2017-08-08T20:03:59.467Z,25.59
2017-08-08T20:06:34.130Z,25.63
2017-08-08T20:09:09.512Z,25.56
2017-08-08T20:11:41.799Z,25.57
2017-08-08T20:14:15.533Z,25.55
2017-08-08T20:16:48.351Z,25.37
2017-08-08T20:19:20.549Z,25.51
2017-08-08T20:21:58.507Z,25.56
2017-08-08T20:24:31.538Z,25.05
2017-08-08T20:27:03.446Z,25.49
2017-08-08T20:29:36.859Z,25.53
2017-08-08T20:32:10.083Z,25.52
2017-08-08T20:34:41.897Z,25.51
2017-08-08T20:37:14.055Z,25.50
2017-08-08T20:39:49.109Z,25.49
2017-08-08T20:42:22.753Z,25.42
2017-08-08T20:45:01.480Z,25.48
2017-08-08T20:47:33.674Z,25.45
2017-08-08T20:50:07.748Z,25.40
2017-08-08T20:52:40.732Z,25.30
2017-08-08T20:55:12.656Z,25.35
2017-08-08T20:57:48.214Z,25.39
2017-08-08T21:00:23.017Z,25.39
2017-08-08T21:02:57.728Z,25.38
2017-08-08T21:05:31.215Z,25.38
2017-08-08T21:08:04.564Z,25.27
2017-08-08T21:10:36.251Z,25.36
2017-08-08T21:13:08.494Z,25.35
2017-08-08T21:15:40.193Z,25.27
2017-08-08T21:18:12.345Z,25.27
2017-08-08T21:20:44.245Z,25.27
2017-08-08T21:23:15.899Z,25.23
2017-08-08T21:25:47.299Z,25.21
2017-08-08T21:28:19.428Z,25.26
2017-08-08T21:30:51.983Z,25.24
2017-08-08T21:33:24.107Z,25.23
2017-08-08T21:35:59.008Z,25.20
2017-08-08T21:38:32.586Z,25.08
2017-08-08T21:41:04.751Z,25.18
2017-08-08T21:43:38.353Z,25.16
2017-08-08T21:46:10.626Z,25.15
2017-08-08T21:48:43.057Z,25.13
2017-08-08T21:51:15.485Z,25.13
2017-08-08T21:53:48.191Z,25.14
2017-08-08T21:56:23.843Z,25.12
2017-08-08T21:59:03.815Z,25.13
2017-08-08T22:01:38.618Z,25.13
2017-08-08T22:04:11.780Z,25.12
2017-08-08T22:06:43.659Z,25.03
2017-08-08T22:09:19.928Z,25.08
2017-08-08T22:11:53.036Z,25.06
2017-08-08T22:14:26.636Z,25.06
2017-08-08T22:17:02.548Z,25.05
2017-08-08T22:19:34.817Z,25.04
2017-08-08T22:22:08.256Z,24.86
2017-08-08T22:24:42.479Z,25.03
2017-08-08T22:27:17.807Z,25.01
2017-08-08T22:30:00.455Z,25.00
2017-08-08T22:35:30.024Z,24.99
2017-08-08T22:38:03.821Z,24.84
2017-08-08T22:40:36.334Z,24.99
2017-08-08T22:43:12.407Z,24.95
2017-08-08T22:45:45.106Z,25.00
2017-08-08T22:48:18.781Z,25.00
2017-08-08T22:50:50.729Z,24.92
2017-08-08T22:53:22.139Z,25.00
2017-08-08T22:55:56.715Z,24.93
2017-08-08T22:58:29.228Z,24.98
2017-08-08T23:01:08.311Z,24.48
2017-08-08T23:03:40.664Z,24.99
2017-08-08T23:06:12.226Z,24.99
2017-08-08T23:08:45.293Z,25.00
2017-08-08T23:11:17.066Z,24.99
2017-08-08T23:13:49.435Z,24.98
2017-08-08T23:16:20.996Z,24.99
2017-08-08T23:18:53.445Z,24.98
2017-08-08T23:21:25.983Z,24.97
2017-08-08T23:24:06.719Z,24.96
2017-08-08T23:26:38.992Z,24.72
2017-08-08T23:29:10.501Z,24.90
2017-08-08T23:31:42.938Z,24.95
2017-08-08T23:34:16.893Z,24.94
2017-08-08T23:36:49.109Z,24.93
2017-08-08T23:39:22.182Z,24.93
2017-08-08T23:41:57.040Z,24.93
2017-08-08T23:44:29.337Z,24.93
2017-08-08T23:47:02.486Z,24.81
2017-08-08T23:49:33.821Z,24.92
2017-08-08T23:52:06.009Z,24.92
2017-08-08T23:54:38.277Z,24.92
2017-08-08T23:57:11.261Z,24.86
2017-08-08T23:59:45.077Z,24.85
